Time;durP1;ratioP1;P1;durP2;ratioP2;P2;SDS_P1;SDS_P2;PMS_P1;PMS_P2;Temp;Humidity;BMP_temperature;BMP_pressure;BME280_temperature;BME280_humidity;BME280_pressure;Samples;Min_cycle;Max_cycle;Signal;HPM_P1;HPM_P2
2024/01/02 00:02:29;;;;;;;1.73;1.00;;;;;;;1.66;96.67;97476.53;6205137;28;20202;-59
2024/01/02 00:05:32;;;;;;;3.90;1.00;;;;;;;1.39;99.10;97477.34;6182444;28;20757;-57
2024/01/02 00:08:35;;;;;;;3.37;1.10;;;;;;;1.17;100.00;97487.00;6212427;28;20230;-58
2024/01/02 00:11:38;;;;;;;1.87;0.80;;;;;;;0.82;100.00;97475.56;6210035;28;20214;-59
2024/01/02 00:14:41;;;;;;;3.03;1.33;;;;;;;0.86;100.00;97487.31;6208872;28;20191;-60
2024/01/02 00:17:43;;;;;;;2.63;0.83;;;;;;;0.80;100.00;97478.38;6208511;28;20282;-60
2024/01/02 00:20:46;;;;;;;5.17;1.20;;;;;;;0.76;100.00;97479.72;6210486;28;20400;-59
2024/01/02 00:23:49;;;;;;;2.33;0.97;;;;;;;0.59;100.00;97483.53;6211841;28;20281;-59
2024/01/02 00:26:51;;;;;;;2.63;1.10;;;;;;;0.54;100.00;97488.53;6206329;28;20221;-59
2024/01/02 00:29:54;;;;;;;5.43;1.23;;;;;;;0.28;100.00;97466.22;6208126;28;20267;-60
2024/01/02 00:32:57;;;;;;;2.33;1.00;;;;;;;0.33;100.00;97476.16;6205223;28;20213;-59
2024/01/02 00:35:59;;;;;;;5.87;1.50;;;;;;;0.20;100.00;97469.78;6209143;28;20197;-62
2024/01/02 00:39:02;;;;;;;4.43;0.90;;;;;;;0.14;100.00;97482.75;6209548;28;20655;-60
2024/01/02 00:42:05;;;;;;;3.23;1.00;;;;;;;0.03;100.00;97477.97;6206892;28;20681;-59
2024/01/02 00:45:11;;;;;;;2.90;1.00;;;;;;;-0.05;100.00;97482.31;6210220;28;20195;-59
2024/01/02 00:48:13;;;;;;;4.70;1.10;;;;;;;-0.12;100.00;97483.19;6203304;28;20224;-59
2024/01/02 00:51:16;;;;;;;2.30;0.70;;;;;;;-0.14;100.00;97486.00;6210115;28;20207;-60
2024/01/02 00:54:18;;;;;;;3.63;1.00;;;;;;;-0.16;100.00;97487.16;6207381;28;20300;-60
2024/01/02 00:57:20;;;;;;;5.00;1.17;;;;;;;-0.18;100.00;97489.97;6199755;28;20228;-60
2024/01/02 01:00:23;;;;;;;1.73;0.87;;;;;;;-0.31;100.00;97492.38;6206337;28;20198;-63
2024/01/02 01:03:25;;;;;;;1.30;0.80;;;;;;;-0.39;100.00;97493.28;6203749;28;20276;-59
2024/01/02 01:06:27;;;;;;;2.60;0.90;;;;;;;-0.39;100.00;97495.09;6207539;28;20717;-61
2024/01/02 01:09:29;;;;;;;1.77;0.90;;;;;;;-0.47;100.00;97484.69;6201249;28;20244;-60
2024/01/02 01:12:31;;;;;;;2.97;0.90;;;;;;;-0.56;100.00;97479.50;6209337;28;20713;-60
2024/01/02 01:15:33;;;;;;;3.27;0.93;;;;;;;-0.57;100.00;97477.06;6187840;28;20225;-59
2024/01/02 01:18:35;;;;;;;2.77;1.07;;;;;;;-0.62;100.00;97482.03;6203647;28;20562;-61
2024/01/02 01:21:38;;;;;;;1.53;1.00;;;;;;;-0.64;100.00;97476.97;6203129;28;20677;-58
2024/01/02 01:24:40;;;;;;;6.57;1.30;;;;;;;-0.65;100.00;97479.75;6201668;28;20276;-59
2024/01/02 01:27:42;;;;;;;4.33;0.80;;;;;;;-0.64;100.00;97471.75;6191583;28;20618;-59
2024/01/02 01:30:44;;;;;;;3.87;0.90;;;;;;;-0.61;100.00;97478.41;6204306;28;20288;-59
2024/01/02 01:33:46;;;;;;;3.70;1.07;;;;;;;-0.65;100.00;97477.94;6209275;28;20687;-57
2024/01/02 01:36:54;;;;;;;5.93;1.23;;;;;;;-0.75;100.00;97453.81;6205009;28;20212;-58
2024/01/02 01:39:56;;;;;;;1.23;0.83;;;;;;;-0.66;100.00;97476.31;6210540;28;20197;-59
2024/01/02 01:42:59;;;;;;;3.50;1.20;;;;;;;-0.79;100.00;97471.69;6201013;28;20185;-58
2024/01/02 01:46:03;;;;;;;6.37;1.30;;;;;;;-0.65;100.00;97482.34;6202961;28;20193;-60
2024/01/02 01:49:09;;;;;;;2.60;1.10;;;;;;;-0.64;100.00;97469.13;6200403;28;20209;-59
2024/01/02 01:52:12;;;;;;;4.97;1.20;;;;;;;-0.67;100.00;97474.69;6195477;28;20685;-60
2024/01/02 01:55:16;;;;;;;6.73;1.00;;;;;;;-0.72;100.00;97476.22;6178377;28;20205;-59
2024/01/02 01:58:19;;;;;;;5.17;1.10;;;;;;;-0.73;100.00;97475.41;6188759;28;20216;-57
2024/01/02 02:01:23;;;;;;;2.80;1.07;;;;;;;-0.82;100.00;97456.34;6186528;28;20205;-58
2024/01/02 02:04:28;;;;;;;3.37;1.07;;;;;;;-0.87;100.00;97445.59;6165903;28;20202;-59
2024/01/02 02:07:32;;;;;;;2.63;0.77;;;;;;;-0.79;100.00;97463.84;6183906;28;20210;-59
2024/01/02 02:10:34;;;;;;;2.40;1.40;;;;;;;-0.88;100.00;97453.63;6182482;28;20213;-56
2024/01/02 02:13:37;;;;;;;1.87;1.20;;;;;;;-0.78;100.00;97464.66;6181044;28;20209;-57
2024/01/02 02:16:44;;;;;;;2.17;1.20;;;;;;;-0.80;100.00;97462.19;6168375;28;20202;-60
2024/01/02 02:19:46;;;;;;;2.20;1.50;;;;;;;-0.86;100.00;97452.44;6182792;28;20657;-60
2024/01/02 02:22:50;;;;;;;5.40;1.10;;;;;;;-0.88;100.00;97453.63;6183608;28;20288;-60
2024/01/02 02:25:53;;;;;;;2.70;1.00;;;;;;;-0.92;100.00;97436.66;6165387;28;20212;-60
2024/01/02 02:28:56;;;;;;;2.30;1.23;;;;;;;-0.92;100.00;97434.03;6180075;28;20213;-60
2024/01/02 02:31:59;;;;;;;1.20;0.83;;;;;;;-1.02;100.00;97436.88;6180364;28;20204;-59
2024/01/02 02:35:01;;;;;;;2.70;0.80;;;;;;;-1.10;100.00;97435.13;6183528;28;20208;-60
2024/01/02 02:38:04;;;;;;;2.60;1.20;;;;;;;-1.02;100.00;97444.72;6188377;28;20205;-61
2024/01/02 02:41:07;;;;;;;7.13;0.90;;;;;;;-1.07;100.00;97447.06;6185710;28;20209;-60
2024/01/02 02:44:09;;;;;;;1.80;1.00;;;;;;;-1.09;100.00;97443.78;6187347;28;20560;-60
2024/01/02 02:47:12;;;;;;;7.77;1.10;;;;;;;-1.14;100.00;97446.91;6183237;28;20205;-60
2024/01/02 02:50:14;;;;;;;3.80;0.93;;;;;;;-1.24;100.00;97451.56;6182901;28;20193;-60
2024/01/02 02:53:17;;;;;;;3.43;1.20;;;;;;;-1.16;100.00;97455.94;6200812;28;20240;-60
2024/01/02 02:56:19;;;;;;;1.73;0.93;;;;;;;-1.11;100.00;97451.81;6183594;28;20204;-59
2024/01/02 02:59:23;;;;;;;8.57;1.90;;;;;;;-1.11;100.00;97454.41;6205641;28;20208;-60
2024/01/02 03:02:26;;;;;;;3.17;1.43;;;;;;;-1.23;100.00;97436.69;6189031;28;20851;-60
2024/01/02 03:05:29;;;;;;;4.17;0.90;;;;;;;-1.18;100.00;97460.50;6204869;28;20216;-59
2024/01/02 03:08:32;;;;;;;3.07;1.10;;;;;;;-1.23;100.00;97447.13;6204415;28;20219;-60
2024/01/02 03:11:34;;;;;;;2.47;1.10;;;;;;;-1.25;100.00;97434.25;6209614;28;20193;-57
2024/01/02 03:14:37;;;;;;;4.30;1.40;;;;;;;-1.22;100.00;97427.88;6209811;28;20759;-60
2024/01/02 03:17:40;;;;;;;2.60;0.80;;;;;;;-1.22;100.00;97423.47;6208158;28;20196;-59
2024/01/02 03:20:44;;;;;;;3.60;1.50;;;;;;;-1.27;100.00;97428.41;6208246;28;20276;-59
2024/01/02 03:23:46;;;;;;;2.80;1.60;;;;;;;-1.33;100.00;97427.28;6205832;28;20201;-57
2024/01/02 03:26:49;;;;;;;4.13;1.57;;;;;;;-1.36;100.00;97427.63;6206992;28;20204;-59
2024/01/02 03:29:51;;;;;;;6.00;1.10;;;;;;;-1.49;100.00;97406.47;6203520;28;20196;-61
2024/01/02 03:32:54;;;;;;;4.10;1.03;;;;;;;-1.36;100.00;97424.19;6207084;28;20276;-59
2024/01/02 03:35:57;;;;;;;2.90;1.23;;;;;;;-1.48;100.00;97417.72;6204105;28;20195;-60
2024/01/02 03:39:02;;;;;;;4.43;1.30;;;;;;;-1.53;100.00;97405.19;6202858;28;20565;-59
2024/01/02 03:42:05;;;;;;;2.57;1.10;;;;;;;-1.45;100.00;97418.22;6203918;28;20189;-60
2024/01/02 03:45:08;;;;;;;6.30;0.93;;;;;;;-1.93;100.00;97333.91;6198872;28;20235;-58
2024/01/02 03:48:10;;;;;;;3.60;1.07;;;;;;;-1.52;100.00;97414.66;6203485;28;20213;-55
2024/01/02 03:51:13;;;;;;;2.90;1.50;;;;;;;-1.44;100.00;97419.81;6207345;28;20705;-60
2024/01/02 03:54:15;;;;;;;3.47;1.10;;;;;;;-1.57;100.00;97407.34;6200789;28;20193;-58
2024/01/02 03:57:17;;;;;;;1.73;0.90;;;;;;;-1.52;100.00;97411.25;6199523;28;20209;-59
2024/01/02 04:00:19;;;;;;;6.30;1.30;;;;;;;-1.64;100.00;97402.97;6205098;28;20272;-57
2024/01/02 04:03:22;;;;;;;2.87;0.70;;;;;;;-1.72;100.00;97393.38;6198929;28;20204;-60
2024/01/02 04:06:32;;;;;;;2.47;0.93;;;;;;;-1.66;100.00;97403.16;6199870;28;20205;-59
2024/01/02 04:09:34;;;;;;;5.93;1.07;;;;;;;-1.71;100.00;97402.84;6196795;28;20201;-59
2024/01/02 04:12:36;;;;;;;2.13;0.80;;;;;;;-1.64;100.00;97393.31;6204219;28;20198;-59
2024/01/02 04:15:38;;;;;;;4.00;1.20;;;;;;;-1.52;100.00;97392.97;6206976;28;20228;-58
2024/01/02 04:18:41;;;;;;;3.50;0.70;;;;;;;-1.53;100.00;97384.28;6202617;28;20200;-59
2024/01/02 04:21:43;;;;;;;3.10;0.90;;;;;;;-1.54;100.00;97390.50;6199279;28;20194;-59
2024/01/02 04:24:45;;;;;;;1.93;0.93;;;;;;;-1.56;100.00;97382.84;6206633;28;20189;-59
2024/01/02 04:27:50;;;;;;;5.17;0.80;;;;;;;-1.60;100.00;97375.53;6204074;28;20307;-60
2024/01/02 04:30:53;;;;;;;2.00;0.70;;;;;;;-1.63;100.00;97371.44;6198026;28;20196;-60
2024/01/02 04:33:55;;;;;;;3.33;0.90;;;;;;;-1.63;100.00;97370.63;6204853;28;20189;-56
2024/01/02 04:36:57;;;;;;;4.33;0.97;;;;;;;-1.74;100.00;97350.97;6199226;28;20615;-60
2024/01/02 04:39:59;;;;;;;4.80;0.83;;;;;;;-1.63;100.00;97361.00;6204344;28;20683;-60
2024/01/02 04:43:02;;;;;;;3.17;0.93;;;;;;;-1.61;100.00;97355.63;6200106;28;20712;-60
2024/01/02 04:46:04;;;;;;;5.33;1.03;;;;;;;-1.61;100.00;97351.22;6203671;28;20284;-60
2024/01/02 04:49:06;;;;;;;3.07;1.30;;;;;;;-1.57;100.00;97344.66;6202216;28;20753;-56
2024/01/02 04:52:08;;;;;;;2.90;0.87;;;;;;;-1.52;100.00;97343.34;6204797;28;20241;-61
2024/01/02 04:55:10;;;;;;;2.93;1.20;;;;;;;-1.50;100.00;97336.13;6204623;28;20201;-59
2024/01/02 04:58:13;;;;;;;9.40;2.70;;;;;;;-1.43;100.00;97334.44;6204977;28;20189;-61
2024/01/02 05:01:15;;;;;;;4.13;1.07;;;;;;;-1.32;100.00;97337.47;6212147;28;20669;-59
2024/01/02 05:04:17;;;;;;;3.20;1.07;;;;;;;-1.26;100.00;97327.28;6204862;28;20204;-60
2024/01/02 05:07:19;;;;;;;3.17;1.00;;;;;;;-1.25;100.00;97323.69;6208427;28;20737;-63
2024/01/02 05:10:22;;;;;;;3.67;1.60;;;;;;;-1.20;100.00;97324.78;6206861;28;20246;-57
2024/01/02 05:13:25;;;;;;;4.30;1.20;;;;;;;-1.13;100.00;97315.25;6211075;28;20204;-60
2024/01/02 05:16:27;;;;;;;3.17;1.20;;;;;;;-1.04;100.00;97318.59;6204588;28;20549;-59
2024/01/02 05:19:29;;;;;;;3.17;1.00;;;;;;;-1.10;100.00;97314.09;6202853;28;20605;-59
2024/01/02 05:22:31;;;;;;;3.80;1.10;;;;;;;-1.13;100.00;97324.91;6208887;28;20577;-59
2024/01/02 05:25:33;;;;;;;4.57;1.10;;;;;;;-1.16;100.00;97312.19;6204651;28;20207;-57
2024/01/02 05:28:36;;;;;;;2.77;1.57;;;;;;;-1.13;100.00;97306.63;6204480;28;20201;-59
2024/01/02 05:31:38;;;;;;;1.80;1.07;;;;;;;-1.07;100.00;97305.91;6203728;28;20189;-58
2024/01/02 05:34:40;;;;;;;3.27;1.10;;;;;;;-1.05;100.00;97302.09;6204812;28;20205;-58
2024/01/02 05:37:42;;;;;;;4.57;0.90;;;;;;;-1.11;100.00;97297.59;6206038;28;20662;-57
2024/01/02 05:40:44;;;;;;;3.10;1.10;;;;;;;-1.18;100.00;97296.69;6203021;28;20638;-59
2024/01/02 05:43:46;;;;;;;5.80;0.80;;;;;;;-1.15;100.00;97296.31;6203540;28;20200;-58
2024/01/02 05:46:49;;;;;;;5.93;0.90;;;;;;;-1.15;100.00;97298.94;6204883;28;20197;-59
2024/01/02 05:49:51;;;;;;;4.57;1.10;;;;;;;-1.07;100.00;97292.81;6203515;28;20215;-60
2024/01/02 05:52:53;;;;;;;2.80;1.00;;;;;;;-1.06;100.00;97290.03;6209446;28;20275;-61
2024/01/02 05:55:56;;;;;;;5.00;0.90;;;;;;;-1.06;100.00;97286.59;6200125;28;20220;-59
2024/01/02 05:58:58;;;;;;;3.90;0.97;;;;;;;-1.06;100.00;97281.38;6201339;28;20501;-60
2024/01/02 06:02:01;;;;;;;1.47;0.73;;;;;;;-1.02;100.00;97280.03;6201416;28;20215;-60
2024/01/02 06:05:04;;;;;;;2.17;0.70;;;;;;;-0.98;100.00;97277.88;6205001;28;20267;-60
2024/01/02 06:08:06;;;;;;;1.80;0.90;;;;;;;-0.96;100.00;97268.03;6205590;28;20209;-58
2024/01/02 06:11:12;;;;;;;5.23;1.00;;;;;;;-0.92;100.00;97272.75;6206795;28;20192;-60
2024/01/02 06:14:15;;;;;;;3.03;0.77;;;;;;;-0.84;100.00;97275.28;6209011;28;20217;-57
2024/01/02 06:17:18;;;;;;;3.17;0.77;;;;;;;-0.83;100.00;97271.66;6207263;28;20230;-59
2024/01/02 06:20:20;;;;;;;2.30;0.80;;;;;;;-0.82;100.00;97267.25;6205899;28;20217;-56
2024/01/02 06:23:23;;;;;;;3.13;0.90;;;;;;;-0.92;100.00;97249.22;6200386;28;20213;-58
2024/01/02 06:26:25;;;;;;;0.73;0.50;;;;;;;-0.81;100.00;97268.88;6210111;28;20223;-59
2024/01/02 06:29:27;;;;;;;1.90;0.60;;;;;;;-0.83;100.00;97260.41;6205236;28;20610;-58
2024/01/02 06:32:31;;;;;;;1.20;0.60;;;;;;;-0.77;100.00;97272.75;6207963;28;20278;-59
2024/01/02 06:35:33;;;;;;;1.67;0.40;;;;;;;-0.74;100.00;97267.13;6204016;28;20670;-59
2024/01/02 06:38:35;;;;;;;5.10;1.00;;;;;;;-0.63;100.00;97251.03;6197326;28;20188;-60
2024/01/02 06:41:38;;;;;;;1.70;0.60;;;;;;;-0.61;100.00;97249.03;6208622;28;20209;-60
2024/01/02 06:44:40;;;;;;;1.37;0.70;;;;;;;-0.64;100.00;97256.41;6206020;28;20200;-59
2024/01/02 06:47:42;;;;;;;2.77;0.90;;;;;;;-0.68;100.00;97240.28;6205533;28;20209;-59
2024/01/02 06:50:45;;;;;;;1.97;0.80;;;;;;;-0.69;100.00;97224.75;6201952;28;20650;-60
2024/01/02 06:53:47;;;;;;;1.57;1.00;;;;;;;-0.63;100.00;97230.09;6209993;28;20316;-53
2024/01/02 06:56:49;;;;;;;1.97;0.50;;;;;;;-0.54;100.00;97233.44;6203119;28;20634;-60
2024/01/02 06:59:51;;;;;;;1.77;0.60;;;;;;;-0.53;100.00;97219.34;6197993;28;20284;-56
2024/01/02 07:02:53;;;;;;;1.87;0.80;;;;;;;-0.47;100.00;97223.03;6205247;28;20197;-60
2024/01/02 07:05:56;;;;;;;2.93;0.73;;;;;;;-0.37;100.00;97208.66;6204381;28;20721;-62
2024/01/02 07:08:58;;;;;;;2.67;0.53;;;;;;;-0.39;100.00;97199.38;6205914;28;20217;-61
2024/01/02 07:12:00;;;;;;;1.47;0.60;;;;;;;-0.36;100.00;97199.81;6200046;28;20283;-61
2024/01/02 07:15:05;;;;;;;1.57;0.50;;;;;;;-0.34;100.00;97189.97;6201009;28;20963;-60
2024/01/02 07:18:07;;;;;;;1.97;0.63;;;;;;;-0.29;100.00;97182.38;6202357;28;20190;-61
2024/01/02 07:21:10;;;;;;;1.63;0.50;;;;;;;-0.21;100.00;97183.25;6201398;28;20830;-59
2024/01/02 07:24:17;;;;;;;2.97;0.70;;;;;;;-0.31;100.00;97155.56;6202889;28;20205;-60
2024/01/02 07:27:19;;;;;;;5.47;0.73;;;;;;;-0.08;100.00;97173.72;6200330;28;20212;-60
2024/01/02 07:30:22;;;;;;;7.27;1.27;;;;;;;0.02;100.00;97162.94;6203965;28;20612;-60
2024/01/02 07:33:24;;;;;;;2.10;0.93;;;;;;;0.14;100.00;97166.66;6200689;28;20189;-61
2024/01/02 07:36:26;;;;;;;1.73;0.70;;;;;;;0.27;100.00;97163.38;6198954;28;20560;-58
2024/01/02 07:39:28;;;;;;;2.00;0.50;;;;;;;0.33;100.00;97164.41;6202381;28;20206;-60
2024/01/02 07:42:31;;;;;;;3.13;0.73;;;;;;;0.35;100.00;97152.75;6202752;28;20498;-58
2024/01/02 07:45:33;;;;;;;1.13;0.50;;;;;;;0.40;100.00;97144.31;6183483;28;20747;-59
2024/01/02 07:48:36;;;;;;;1.27;0.57;;;;;;;0.50;100.00;97136.94;6197246;28;20213;-56
2024/01/02 07:51:38;;;;;;;1.33;0.50;;;;;;;0.54;100.00;97134.72;6202992;28;20323;-60
2024/01/02 07:54:40;;;;;;;0.90;0.60;;;;;;;0.66;100.00;97135.81;6200764;28;20205;-59
2024/01/02 07:57:42;;;;;;;0.70;0.50;;;;;;;0.76;100.00;97137.09;6199449;28;20198;-58
2024/01/02 08:00:44;;;;;;;1.40;0.57;;;;;;;0.86;100.00;97139.38;6201614;28;20196;-59
2024/01/02 08:03:47;;;;;;;3.13;0.67;;;;;;;0.94;100.00;97126.09;6196608;28;20277;-59
2024/01/02 08:06:49;;;;;;;0.63;0.53;;;;;;;0.95;100.00;97108.56;6198916;28;20201;-59
2024/01/02 08:09:51;;;;;;;2.17;0.53;;;;;;;1.11;100.00;97123.16;6203626;28;20276;-59
2024/01/02 08:12:53;;;;;;;1.80;0.53;;;;;;;1.07;100.00;97101.75;6200962;28;20198;-56
2024/01/02 08:15:56;;;;;;;0.67;0.57;;;;;;;1.25;100.00;97111.72;6181209;28;20201;-60
2024/01/02 08:18:59;;;;;;;2.37;0.53;;;;;;;1.31;100.00;97102.22;6197892;28;20190;-60
2024/01/02 08:22:01;;;;;;;2.10;0.63;;;;;;;1.46;100.00;97095.00;6206188;28;20213;-61
2024/01/02 08:25:03;;;;;;;0.57;0.50;;;;;;;1.55;100.00;97085.94;6194623;28;20297;-57
2024/01/02 08:28:06;;;;;;;1.57;0.90;;;;;;;1.65;100.00;97075.88;6198552;28;20218;-59
2024/01/02 08:31:09;;;;;;;0.80;0.50;;;;;;;1.70;100.00;97089.19;6204539;28;20301;-59
2024/01/02 08:34:12;;;;;;;2.83;0.60;;;;;;;1.76;100.00;97080.50;6214095;28;20650;-55
2024/01/02 08:37:14;;;;;;;0.87;0.60;;;;;;;1.87;100.00;97086.97;6210338;28;20205;-59
2024/01/02 08:40:17;;;;;;;0.67;0.53;;;;;;;2.04;100.00;97084.78;6207081;28;20191;-56
2024/01/02 08:43:19;;;;;;;0.90;0.43;;;;;;;2.11;100.00;97090.03;6207104;28;20214;-60
2024/01/02 08:46:21;;;;;;;0.40;0.40;;;;;;;2.22;100.00;97085.00;6212377;28;20238;-60
2024/01/02 08:49:23;;;;;;;2.03;0.80;;;;;;;2.23;100.00;97081.34;6211764;28;20292;-58
2024/01/02 08:52:25;;;;;;;3.00;0.90;;;;;;;2.28;100.00;97094.69;6209093;28;20229;-59
2024/01/02 08:55:28;;;;;;;1.47;0.73;;;;;;;2.37;100.00;97087.41;6213390;28;20200;-59
2024/01/02 08:58:30;;;;;;;0.70;0.70;;;;;;;2.36;100.00;97062.09;6204733;28;20192;-58
2024/01/02 09:01:32;;;;;;;2.43;1.33;;;;;;;2.54;100.00;97070.16;6202650;28;20222;-59
2024/01/02 09:04:34;;;;;;;2.07;1.10;;;;;;;2.67;100.00;97074.59;6210414;28;20198;-59
2024/01/02 09:07:36;;;;;;;2.60;0.93;;;;;;;2.78;100.00;97073.94;6211465;28;20752;-59
2024/01/02 09:10:39;;;;;;;1.30;0.90;;;;;;;2.92;100.00;97064.19;6210180;28;20759;-58
2024/01/02 09:13:41;;;;;;;3.30;1.37;;;;;;;3.00;100.00;97058.69;6204409;28;20228;-59
2024/01/02 09:16:45;;;;;;;1.80;0.70;;;;;;;3.16;100.00;97051.34;6211215;28;20204;-59
2024/01/02 09:19:47;;;;;;;1.97;0.50;;;;;;;3.29;100.00;97065.22;6204514;28;20254;-57
2024/01/02 09:22:49;;;;;;;1.23;0.50;;;;;;;3.43;100.00;97070.44;6209490;28;20196;-59
2024/01/02 09:25:57;;;;;;;0.60;0.50;;;;;;;3.49;100.00;97070.38;6206773;28;20558;-60
2024/01/02 09:28:59;;;;;;;1.00;0.70;;;;;;;3.59;100.00;97049.66;6201371;28;20205;-59
2024/01/02 09:32:01;;;;;;;1.40;0.60;;;;;;;3.59;100.00;97017.25;6205525;28;20461;-59
2024/01/02 09:35:04;;;;;;;2.30;0.80;;;;;;;3.65;100.00;97031.44;6201435;28;20650;-59
2024/01/02 09:38:07;;;;;;;1.30;0.60;;;;;;;3.83;100.00;97039.38;6208687;28;20202;-60
2024/01/02 09:41:16;;;;;;;1.10;0.57;;;;;;;3.92;100.00;97040.72;6202693;28;20205;-59
2024/01/02 09:44:39;;;;;;;1.23;0.77;;;;;;;4.00;100.00;97027.28;6201687;28;20860;-58
2024/01/02 09:48:19;;;;;;;0.83;0.50;;;;;;;4.16;100.00;96993.50;6204421;28;20223;-58
2024/01/02 09:51:44;;;;;;;1.83;0.47;;;;;;;4.32;100.00;96982.38;6204584;28;20313;-58
2024/01/02 09:54:58;;;;;;;0.37;0.37;;;;;;;4.40;100.00;96971.53;6206237;28;20669;-58
2024/01/02 09:58:03;;;;;;;1.87;0.50;;;;;;;4.46;100.00;96970.66;6200116;28;20532;-57
2024/01/02 10:01:12;;;;;;;0.40;0.40;;;;;;;4.49;100.00;96957.03;6207556;28;20295;-57
2024/01/02 10:04:46;;;;;;;2.63;0.70;;;;;;;4.53;99.58;96960.84;6200445;28;20219;-58
2024/01/02 10:07:58;;;;;;;0.80;0.20;;;;;;;4.61;100.00;96962.38;6204805;28;20323;-59
2024/01/02 10:11:09;;;;;;;1.90;0.50;;;;;;;4.77;84.47;96945.13;6204974;28;20202;-58
2024/01/02 10:14:49;;;;;;;0.40;0.40;;;;;;;4.86;93.00;96944.59;6203053;28;20212;-59
2024/01/02 10:18:10;;;;;;;0.60;0.40;;;;;;;4.82;93.45;96924.16;6195948;28;20229;-58
2024/01/02 10:22:01;;;;;;;0.47;0.43;;;;;;;4.89;91.07;96936.25;6204996;28;20189;-59
2024/01/02 10:25:09;;;;;;;1.90;0.50;;;;;;;4.95;92.38;96923.19;6167975;28;20208;-58
2024/01/02 10:28:19;;;;;;;0.30;0.30;;;;;;;4.98;88.64;96923.53;6167867;28;20203;-58
2024/01/02 10:31:42;;;;;;;1.90;0.50;;;;;;;5.02;92.08;96918.59;6199878;28;20681;-59
2024/01/02 10:35:04;;;;;;;1.13;0.57;;;;;;;5.05;87.00;96900.47;6199298;28;20194;-58
2024/01/02 10:38:28;;;;;;;0.50;0.50;;;;;;;5.26;74.40;96896.50;6204356;28;20666;-59
2024/01/02 10:41:41;;;;;;;0.60;0.40;;;;;;;5.31;79.18;96901.91;6209430;28;20734;-58
2024/01/02 10:45:14;;;;;;;1.37;0.50;;;;;;;5.35;78.52;96894.34;6205959;28;20192;-60
2024/01/02 10:48:37;;;;;;;2.83;0.60;;;;;;;5.36;80.61;96883.53;6205261;28;20208;-58
2024/01/02 10:51:41;;;;;;;0.93;0.53;;;;;;;5.39;74.71;96864.59;6204533;28;20232;-59
2024/01/02 10:54:53;;;;;;;1.13;0.50;;;;;;;5.54;75.50;96858.88;6215126;28;20200;-59
2024/01/02 10:58:19;;;;;;;0.80;0.60;;;;;;;5.68;63.77;96840.97;6206924;28;20625;-58
2024/01/02 11:01:25;;;;;;;0.87;0.57;;;;;;;5.88;66.66;96816.81;6205781;28;20202;-59
2024/01/02 11:04:35;;;;;;;1.00;0.60;;;;;;;5.95;76.03;96805.06;6208947;28;20653;-58
2024/01/02 11:07:41;;;;;;;0.53;0.53;;;;;;;5.93;74.34;96812.44;6202131;28;20297;-57
2024/01/02 11:10:57;;;;;;;0.60;0.50;;;;;;;5.97;73.88;96810.16;6205011;28;20728;-57
2024/01/02 11:14:00;;;;;;;0.90;0.70;;;;;;;5.94;78.12;96797.38;6206767;28;20199;-56
2024/01/02 11:17:04;;;;;;;0.60;0.40;;;;;;;6.07;80.91;96801.63;6211551;28;20232;-59
2024/01/02 11:20:14;;;;;;;1.13;0.50;;;;;;;6.08;80.00;96798.72;6203183;28;20688;-58
2024/01/02 11:23:22;;;;;;;1.87;0.73;;;;;;;6.13;80.19;96790.09;6210078;28;20214;-57
2024/01/02 11:26:30;;;;;;;1.90;0.70;;;;;;;6.15;72.34;96798.59;6205945;28;20561;-60
2024/01/02 11:29:35;;;;;;;1.03;0.60;;;;;;;6.22;69.16;96803.75;6201381;28;20216;-59
2024/01/02 11:32:49;;;;;;;0.70;0.70;;;;;;;6.24;64.86;96777.88;6203354;28;20720;-59
2024/01/02 11:36:33;;;;;;;1.23;0.87;;;;;;;6.20;66.61;96778.31;6199673;28;20209;-59
2024/01/02 11:39:41;;;;;;;1.50;0.83;;;;;;;6.21;66.59;96802.97;6207244;28;20660;-60
2024/01/02 11:42:59;;;;;;;0.87;0.70;;;;;;;6.19;63.11;96789.94;6205597;28;20208;-58
2024/01/02 11:46:06;;;;;;;1.67;0.90;;;;;;;6.27;61.54;96774.75;6201886;28;20383;-57
2024/01/02 11:49:16;;;;;;;3.57;1.00;;;;;;;6.39;58.26;96804.59;6202387;28;20708;-57
2024/01/02 11:52:19;;;;;;;0.90;0.80;;;;;;;6.10;58.50;96759.63;6198128;28;20328;-58
2024/01/02 11:55:44;;;;;;;1.50;0.80;;;;;;;6.36;59.88;96813.03;6206351;28;20548;-60
2024/01/02 11:59:38;;;;;;;1.40;0.93;;;;;;;6.37;61.98;96809.34;6198568;28;20691;-60
2024/01/02 12:03:24;;;;;;;1.80;1.20;;;;;;;6.29;59.98;96794.63;6166899;28;20654;-59
2024/01/02 12:06:37;;;;;;;1.03;0.90;;;;;;;6.31;62.08;96786.47;6142804;28;20202;-56
2024/01/02 12:09:46;;;;;;;1.90;1.20;;;;;;;6.29;61.93;96765.53;6153235;28;20268;-61
2024/01/02 12:13:06;;;;;;;1.83;1.13;;;;;;;6.28;66.05;96774.53;6170319;28;20212;-58
2024/01/02 12:16:10;;;;;;;1.67;1.07;;;;;;;6.28;64.19;96757.84;6169629;28;20284;-59
2024/01/02 12:19:17;;;;;;;2.07;1.30;;;;;;;6.37;63.64;96744.00;6169530;28;20232;-56
2024/01/02 12:22:23;;;;;;;1.07;0.97;;;;;;;6.46;63.25;96728.56;6171684;28;20217;-59
2024/01/02 12:25:26;;;;;;;2.40;1.30;;;;;;;6.57;62.70;96717.09;6169911;28;20283;-58
2024/01/02 12:28:31;;;;;;;2.03;1.00;;;;;;;6.63;61.60;96721.41;6170558;28;20205;-57
2024/01/02 12:31:45;;;;;;;1.50;1.00;;;;;;;6.71;62.41;96707.00;6170246;28;20228;-54
2024/01/02 12:34:53;;;;;;;2.37;1.03;;;;;;;6.86;60.85;96731.06;6170185;28;20246;-58
2024/01/02 12:38:14;;;;;;;2.77;1.50;;;;;;;6.94;59.39;96738.56;6187368;28;20300;-59
2024/01/02 12:41:29;;;;;;;2.77;1.30;;;;;;;7.04;59.00;96718.59;6200010;28;20200;-59
2024/01/02 12:44:34;;;;;;;2.00;0.87;;;;;;;7.11;59.61;96728.00;6208667;28;20352;-59
2024/01/02 12:47:41;;;;;;;1.40;1.03;;;;;;;7.18;60.84;96711.91;6202473;28;20290;-60
2024/01/02 12:50:49;;;;;;;1.40;1.00;;;;;;;7.23;59.50;96711.97;6214228;28;20269;-59
2024/01/02 12:53:54;;;;;;;1.17;0.87;;;;;;;7.30;57.76;96695.94;6211177;28;20229;-59
2024/01/02 12:57:04;;;;;;;1.07;0.90;;;;;;;7.32;59.13;96693.84;6191042;28;20200;-59
2024/01/02 13:00:10;;;;;;;1.50;0.83;;;;;;;7.34;63.75;96691.72;6205766;28;20684;-58
2024/01/02 13:03:16;;;;;;;2.40;0.90;;;;;;;7.33;60.10;96685.63;6211458;28;20194;-59
2024/01/02 13:06:20;;;;;;;1.33;1.10;;;;;;;7.29;58.03;96676.59;6209642;28;20575;-60
2024/01/02 13:09:24;;;;;;;0.83;0.80;;;;;;;7.30;60.03;96691.44;6189830;28;20299;-60
2024/01/02 13:12:26;;;;;;;0.90;0.83;;;;;;;7.22;61.05;96676.75;6210464;28;20204;-58
2024/01/02 13:15:28;;;;;;;1.13;1.00;;;;;;;7.33;57.73;96682.97;6207586;28;20192;-60
2024/01/02 13:18:31;;;;;;;1.30;1.00;;;;;;;7.28;60.71;96685.56;6203874;28;20618;-58
2024/01/02 13:21:36;;;;;;;2.00;1.17;;;;;;;7.28;59.82;96677.63;6207765;28;20554;-59
2024/01/02 13:24:46;;;;;;;1.73;1.03;;;;;;;7.14;57.92;96652.53;6199895;28;20231;-58
2024/01/02 13:27:51;;;;;;;1.73;1.10;;;;;;;7.20;60.89;96665.63;6205697;28;20204;-58
2024/01/02 13:30:57;;;;;;;3.57;1.73;;;;;;;7.15;61.04;96676.13;6201206;28;20209;-60
2024/01/02 13:34:01;;;;;;;2.47;1.50;;;;;;;7.15;60.29;96680.63;6209851;28;20235;-59
2024/01/02 13:37:05;;;;;;;1.97;1.30;;;;;;;7.07;62.64;96670.44;6202855;28;20236;-60
2024/01/02 13:40:18;;;;;;;2.30;1.10;;;;;;;7.08;65.42;96687.94;6205876;28;20200;-60
2024/01/02 13:43:21;;;;;;;2.83;1.83;;;;;;;6.93;63.38;96673.44;6204142;28;20208;-60
2024/01/02 13:46:24;;;;;;;2.90;1.70;;;;;;;6.89;64.74;96661.72;6208144;28;20688;-60
2024/01/02 13:49:43;;;;;;;2.10;1.50;;;;;;;6.89;68.79;96655.63;6205919;28;20213;-59
2024/01/02 13:52:45;;;;;;;1.63;1.23;;;;;;;6.88;71.30;96659.31;6204575;28;20731;-60
2024/01/02 13:55:47;;;;;;;2.17;1.33;;;;;;;6.84;72.94;96642.31;6207020;28;20274;-61
2024/01/02 13:59:04;;;;;;;2.37;1.40;;;;;;;6.89;74.29;96645.03;6199861;28;20197;-60
2024/01/02 14:02:15;;;;;;;2.00;1.50;;;;;;;6.87;75.48;96642.66;6200736;28;20204;-60
2024/01/02 14:05:25;;;;;;;1.70;1.40;;;;;;;6.85;76.57;96638.66;6201936;28;20194;-61
2024/01/02 14:08:28;;;;;;;2.70;1.70;;;;;;;6.81;78.06;96648.13;6204268;28;20201;-60
2024/01/02 14:11:31;;;;;;;2.57;1.63;;;;;;;6.75;78.86;96641.13;6201987;28;20206;-61
2024/01/02 14:14:46;;;;;;;1.73;1.07;;;;;;;6.69;80.08;96658.78;6203199;28;20575;-58
2024/01/02 14:18:03;;;;;;;3.10;1.57;;;;;;;6.56;81.00;96653.84;6207116;28;20197;-59
2024/01/02 14:21:13;;;;;;;3.23;1.73;;;;;;;6.46;81.79;96657.13;6197635;28;20207;-60
2024/01/02 14:24:22;;;;;;;2.87;1.60;;;;;;;6.38;82.66;96663.59;6201842;28;20866;-61
2024/01/02 14:27:33;;;;;;;3.10;1.83;;;;;;;6.28;83.56;96657.34;6201785;28;20571;-60
2024/01/02 14:30:41;;;;;;;4.07;2.00;;;;;;;6.26;84.36;96657.59;6203271;28;20571;-59
2024/01/02 14:34:22;;;;;;;3.87;2.50;;;;;;;6.15;83.72;96661.88;6206780;28;20190;-60